Terminal Aerodrome Forecast
Issued by NWS

Home | Current Version | Previous Version | Text Only | Print | Product List | Glossary On
Versions: 1 2 3 4 5 6 7 8 9 10 11 12
366
FTUS46 KSGX 202341
TAFSNA
TAF
KSNA 202341Z 2100/2124 25014G22KT P6SM SCT030
     FM210400 VRB04KT P6SM SCT030
     FM211300 VRB06KT P6SM SKC WS020/06025KT
     FM212100 32007KT P6SM FEW250=

USA.gov is the U.S. government's official web portal to all federal, state and local government web resources and services.